createdAt,value
2022-10-20T00:02:25.360Z,101614.69
2022-10-20T00:04:51.743Z,101607.94
2022-10-20T00:07:18.084Z,101614.31
2022-10-20T00:09:44.444Z,101613.50
2022-10-20T00:12:10.752Z,101613.50
2022-10-20T00:14:37.111Z,101616.63
2022-10-20T00:17:03.443Z,101613.75
2022-10-20T00:19:29.762Z,101619.00
2022-10-20T00:21:56.145Z,101623.44
2022-10-20T00:24:22.486Z,101624.13
2022-10-20T00:26:48.793Z,101617.41
2022-10-20T00:29:15.199Z,101618.53
2022-10-20T00:31:41.611Z,101618.16
2022-10-20T00:34:07.962Z,101612.97
2022-10-20T00:36:34.311Z,101615.28
2022-10-20T00:39:00.665Z,101614.13
2022-10-20T00:41:26.991Z,101610.50
2022-10-20T00:43:53.464Z,101610.19
2022-10-20T00:46:20.658Z,101612.03
2022-10-20T00:48:47.003Z,101619.97
2022-10-20T00:51:13.363Z,101622.66
2022-10-20T00:53:39.707Z,101626.31
2022-10-20T00:56:06.063Z,101626.22
2022-10-20T00:58:32.381Z,101616.25
2022-10-20T01:00:58.727Z,101615.56
2022-10-20T01:03:25.034Z,101612.78
2022-10-20T01:05:51.378Z,101616.34
2022-10-20T01:08:17.723Z,101614.22
2022-10-20T01:10:44.022Z,101625.06
2022-10-20T01:13:10.327Z,101615.47
2022-10-20T01:15:36.706Z,101622.59
2022-10-20T01:18:03.036Z,101632.66
2022-10-20T01:20:29.370Z,101624.63
2022-10-20T01:22:55.700Z,101621.81
2022-10-20T01:25:22.011Z,101621.75
2022-10-20T01:27:48.325Z,101625.06
2022-10-20T01:30:14.672Z,101625.81
2022-10-20T01:32:41.011Z,101616.44
2022-10-20T01:35:07.358Z,101611.56
2022-10-20T01:37:48.585Z,101615.41
2022-10-20T01:40:16.555Z,101629.66
2022-10-20T01:42:42.894Z,101626.19
2022-10-20T01:45:09.231Z,101636.50
2022-10-20T01:47:35.898Z,101625.00
2022-10-20T01:50:02.429Z,101619.03
2022-10-20T01:52:28.762Z,101615.84
2022-10-20T01:54:55.102Z,101621.25
2022-10-20T01:57:21.419Z,101616.56
2022-10-20T01:59:47.748Z,101619.78
2022-10-20T02:02:14.097Z,101614.53
2022-10-20T02:04:40.434Z,101606.66
2022-10-20T02:07:06.734Z,101614.16
2022-10-20T02:09:33.067Z,101615.75
2022-10-20T02:11:59.409Z,101610.13
2022-10-20T02:14:25.792Z,101611.69
2022-10-20T02:16:52.111Z,101607.72
2022-10-20T02:19:18.456Z,101600.63
2022-10-20T02:21:44.804Z,101605.38
2022-10-20T02:24:11.180Z,101606.06
2022-10-20T02:26:37.503Z,101605.72
2022-10-20T02:29:03.855Z,101609.28
2022-10-20T02:31:30.209Z,101601.72
2022-10-20T02:33:56.533Z,101605.31
2022-10-20T02:36:22.837Z,101608.50
2022-10-20T02:38:49.118Z,101606.81
2022-10-20T02:41:15.517Z,101604.88
2022-10-20T02:43:41.868Z,101595.31
2022-10-20T02:46:08.261Z,101606.03
2022-10-20T02:48:34.633Z,101608.03
2022-10-20T02:51:01.045Z,101607.25
2022-10-20T02:53:27.369Z,101615.16
2022-10-20T02:55:53.668Z,101608.44
2022-10-20T02:58:20.037Z,101608.81
2022-10-20T03:00:46.382Z,101605.72
2022-10-20T03:03:13.597Z,101606.06
2022-10-20T03:05:39.922Z,101607.72
2022-10-20T03:08:06.317Z,101613.19
2022-10-20T03:10:32.654Z,101615.16
2022-10-20T03:12:58.976Z,101618.75
2022-10-20T03:15:25.323Z,101614.41
2022-10-20T03:17:51.649Z,101617.19
2022-10-20T03:20:18.028Z,101616.38
2022-10-20T03:22:44.373Z,101619.09
2022-10-20T03:25:10.733Z,101628.59
2022-10-20T03:27:37.297Z,101627.44
2022-10-20T03:30:03.903Z,101617.84
2022-10-20T03:32:30.271Z,101613.19
2022-10-20T03:34:56.576Z,101612.75
2022-10-20T03:37:22.922Z,101627.03
2022-10-20T03:39:49.257Z,101625.69
2022-10-20T03:42:15.597Z,101629.38
2022-10-20T03:44:41.962Z,101625.03
2022-10-20T03:47:08.334Z,101627.44
2022-10-20T03:49:34.666Z,101646.84
2022-10-20T03:52:01.014Z,101642.44
2022-10-20T03:54:27.333Z,101634.53
2022-10-20T03:56:53.666Z,101640.09
2022-10-20T03:59:19.996Z,101636.09
2022-10-20T04:01:46.422Z,101639.66
2022-10-20T04:04:12.800Z,101641.66
2022-10-20T04:06:39.209Z,101644.75
2022-10-20T04:09:05.589Z,101642.44
2022-10-20T04:11:31.964Z,101644.34
2022-10-20T04:13:58.308Z,101644.72
2022-10-20T04:16:24.615Z,101641.50
2022-10-20T04:18:50.947Z,101648.38
2022-10-20T04:21:18.151Z,101649.41
2022-10-20T04:23:44.574Z,101651.47
2022-10-20T04:26:10.906Z,101653.81
2022-10-20T04:28:37.216Z,101643.91
2022-10-20T04:31:03.549Z,101646.63
2022-10-20T04:33:29.860Z,101655.34
2022-10-20T04:35:56.188Z,101652.56
2022-10-20T04:38:22.505Z,101648.19
2022-10-20T04:40:48.897Z,101649.72
2022-10-20T04:43:15.233Z,101647.75
2022-10-20T04:45:41.560Z,101656.22
2022-10-20T04:48:07.916Z,101647.00
2022-10-20T04:50:34.247Z,101652.31
2022-10-20T04:53:00.574Z,101651.63
2022-10-20T04:55:26.902Z,101661.13
2022-10-20T04:57:53.238Z,101660.72
2022-10-20T05:00:19.555Z,101663.22
2022-10-20T05:02:45.896Z,101660.34
2022-10-20T05:05:13.117Z,101653.94
2022-10-20T05:07:39.820Z,101652.84
2022-10-20T05:10:06.363Z,101656.88
2022-10-20T05:12:32.718Z,101664.38
2022-10-20T05:14:59.077Z,101654.03
2022-10-20T05:17:25.411Z,101662.00
2022-10-20T05:19:52.613Z,101661.59
2022-10-20T05:22:18.991Z,101666.31
2022-10-20T05:24:45.333Z,101673.97
2022-10-20T05:27:11.676Z,101674.56
2022-10-20T05:29:38.029Z,101676.22
2022-10-20T05:32:04.385Z,101680.59
2022-10-20T05:34:30.729Z,101685.00
2022-10-20T05:36:57.044Z,101687.41
2022-10-20T05:39:23.420Z,101692.97
2022-10-20T05:41:50.017Z,101689.41
2022-10-20T05:44:16.339Z,101694.00
2022-10-20T05:46:42.749Z,101697.28
2022-10-20T05:49:09.141Z,101695.75
2022-10-20T05:51:35.486Z,101707.53
2022-10-20T05:54:01.826Z,101702.53
2022-10-20T05:56:28.886Z,101712.06
2022-10-20T05:58:55.398Z,101707.28
2022-10-20T06:01:21.999Z,101706.31
2022-10-20T06:03:48.498Z,101700.88
2022-10-20T06:06:15.890Z,101701.72
2022-10-20T06:08:42.468Z,101701.38
2022-10-20T06:11:09.146Z,101701.69
2022-10-20T06:13:35.478Z,101715.94
2022-10-20T06:16:01.832Z,101712.00
2022-10-20T06:18:28.190Z,101722.13
2022-10-20T06:20:54.565Z,101715.34
2022-10-20T06:23:23.704Z,101721.09
2022-10-20T06:25:50.123Z,101724.34
2022-10-20T06:28:17.423Z,101721.50
2022-10-20T06:30:43.758Z,101717.81
2022-10-20T06:33:10.983Z,101717.88
2022-10-20T06:35:37.337Z,101729.06
2022-10-20T06:38:04.550Z,101726.41
2022-10-20T06:40:30.889Z,101736.84
2022-10-20T06:42:57.375Z,101741.81
2022-10-20T06:45:24.755Z,101738.69
2022-10-20T06:47:51.215Z,101737.16
2022-10-20T06:50:18.604Z,101744.69
2022-10-20T06:52:46.000Z,101739.13
2022-10-20T06:55:13.447Z,101745.06
2022-10-20T06:57:40.837Z,101753.03
2022-10-20T07:00:08.210Z,101751.47
2022-10-20T07:02:36.010Z,101751.53
2022-10-20T07:05:02.689Z,101758.41
2022-10-20T07:07:29.226Z,101759.22
2022-10-20T07:09:56.657Z,101760.44
2022-10-20T07:12:24.033Z,101753.41
2022-10-20T07:14:50.458Z,101757.59
2022-10-20T07:17:17.845Z,101758.63
2022-10-20T07:19:44.305Z,101753.63
2022-10-20T07:22:11.905Z,101755.34
2022-10-20T07:24:38.346Z,101758.41
2022-10-20T07:27:04.823Z,101765.22
2022-10-20T07:29:31.265Z,101770.13
2022-10-20T07:31:59.953Z,101771.13
2022-10-20T07:34:28.257Z,101771.22
2022-10-20T07:36:54.787Z,101771.88
2022-10-20T07:39:21.248Z,101782.06
2022-10-20T07:41:47.802Z,101774.16
2022-10-20T07:44:15.362Z,101773.66
2022-10-20T07:46:41.863Z,101772.91
2022-10-20T07:51:54.968Z,101765.38
2022-10-20T07:54:22.378Z,101768.66
2022-10-20T07:56:49.764Z,101771.38
2022-10-20T07:59:16.237Z,101771.22
2022-10-20T08:01:43.770Z,101769.88
2022-10-20T08:04:10.945Z,101759.09
2022-10-20T08:06:39.109Z,101764.72
2022-10-20T08:09:06.951Z,101764.47
2022-10-20T08:11:33.432Z,101767.19
2022-10-20T08:14:00.783Z,101766.50
2022-10-20T08:16:30.916Z,101770.16
2022-10-20T08:19:03.147Z,101769.28
2022-10-20T08:21:29.608Z,101772.13
2022-10-20T08:23:57.066Z,101769.16
2022-10-20T08:26:24.396Z,101772.25
2022-10-20T08:28:50.793Z,101776.63
2022-10-20T08:31:17.368Z,101768.97
2022-10-20T08:33:43.810Z,101769.38
2022-10-20T08:36:10.204Z,101777.13
2022-10-20T08:38:36.620Z,101774.75
2022-10-20T08:41:03.044Z,101773.25
2022-10-20T08:43:30.309Z,101779.91
2022-10-20T08:45:56.627Z,101773.59
2022-10-20T08:48:23.880Z,101781.22
2022-10-20T08:50:51.101Z,101774.28
2022-10-20T08:53:18.357Z,101776.41
2022-10-20T08:55:45.571Z,101773.63
2022-10-20T08:58:12.802Z,101770.56
2022-10-20T09:00:39.217Z,101775.75
2022-10-20T09:03:06.469Z,101783.25
2022-10-20T09:05:34.764Z,101775.72
2022-10-20T09:08:01.287Z,101779.97
2022-10-20T09:10:29.576Z,101778.00
2022-10-20T09:12:58.764Z,101771.00
2022-10-20T09:15:25.176Z,101766.25
2022-10-20T09:17:52.404Z,101764.00
2022-10-20T09:20:18.953Z,101763.28
2022-10-20T09:22:45.440Z,101769.25
2022-10-20T09:25:12.645Z,101774.78
2022-10-20T09:27:40.926Z,101764.00
2022-10-20T09:30:09.213Z,101761.22
2022-10-20T09:32:52.910Z,101768.69
2022-10-20T09:35:19.430Z,101771.03
2022-10-20T09:37:48.553Z,101766.81
2022-10-20T09:40:15.075Z,101768.50
2022-10-20T09:42:43.337Z,101768.00
2022-10-20T09:45:09.699Z,101770.72
2022-10-20T09:47:36.130Z,101764.34
2022-10-20T09:50:02.518Z,101769.84
2022-10-20T09:52:28.847Z,101766.22
2022-10-20T09:54:56.047Z,101764.28
2022-10-20T09:57:22.377Z,101764.59
2022-10-20T09:59:48.712Z,101762.66
2022-10-20T10:02:15.231Z,101759.03
2022-10-20T10:04:41.601Z,101761.03
2022-10-20T10:07:10.782Z,101757.50
2022-10-20T10:09:37.133Z,101755.81
2022-10-20T10:12:03.456Z,101743.16
2022-10-20T10:14:29.800Z,101750.75
2022-10-20T10:16:57.005Z,101740.31
2022-10-20T10:19:23.340Z,101745.56
2022-10-20T10:21:49.655Z,101741.91
2022-10-20T10:24:16.855Z,101744.75
2022-10-20T10:26:43.187Z,101744.00
2022-10-20T10:29:10.394Z,101747.16
2022-10-20T10:31:36.725Z,101743.59
2022-10-20T10:34:03.066Z,101743.16
2022-10-20T10:36:29.405Z,101735.13
2022-10-20T10:38:55.939Z,101738.59
2022-10-20T10:41:22.275Z,101730.66
2022-10-20T10:43:49.154Z,101729.09
2022-10-20T10:46:16.390Z,101727.56
2022-10-20T10:48:42.734Z,101730.88
2022-10-20T10:51:09.966Z,101729.97
2022-10-20T10:53:36.299Z,101724.72
2022-10-20T10:56:02.681Z,101725.53
2022-10-20T10:58:29.021Z,101726.75
2022-10-20T11:00:55.376Z,101726.84
2022-10-20T11:03:21.891Z,101718.97
2022-10-20T11:05:48.245Z,101706.22
2022-10-20T11:08:14.700Z,101719.16
2022-10-20T11:10:41.036Z,101705.31
2022-10-20T11:13:07.404Z,101708.47
2022-10-20T11:15:38.113Z,101704.88
2022-10-20T11:18:04.640Z,101695.19
2022-10-20T11:20:31.008Z,101691.75
2022-10-20T11:22:57.367Z,101690.56
2022-10-20T11:25:23.774Z,101689.78
2022-10-20T11:27:50.120Z,101686.16
2022-10-20T11:30:16.469Z,101689.53
2022-10-20T11:32:42.794Z,101680.28
2022-10-20T11:35:09.979Z,101679.03
2022-10-20T11:37:36.441Z,101673.84
2022-10-20T11:40:06.054Z,101672.66
2022-10-20T11:42:35.146Z,101675.41
2022-10-20T11:45:01.643Z,101673.84
2022-10-20T11:47:27.964Z,101674.66
2022-10-20T11:49:54.301Z,101669.47
2022-10-20T11:52:20.770Z,101665.06
2022-10-20T11:54:47.111Z,101663.91
2022-10-20T11:57:13.439Z,101663.91
2022-10-20T11:59:39.831Z,101650.84
2022-10-20T12:02:06.272Z,101650.41
2022-10-20T12:04:32.613Z,101650.03
2022-10-20T12:06:58.966Z,101657.56
2022-10-20T12:09:25.321Z,101649.22
2022-10-20T12:11:54.486Z,101645.28
2022-10-20T12:14:20.837Z,101647.25
2022-10-20T12:16:47.296Z,101645.28
2022-10-20T12:19:13.607Z,101642.13
2022-10-20T12:21:39.872Z,101646.06
2022-10-20T12:24:06.236Z,101647.31
2022-10-20T12:26:32.552Z,101643.75
2022-10-20T12:28:58.857Z,101640.97
2022-10-20T12:31:25.186Z,101646.06
2022-10-20T12:33:51.503Z,101645.69
2022-10-20T12:36:17.842Z,101640.13
2022-10-20T12:38:44.198Z,101644.91
2022-10-20T12:41:10.520Z,101631.00
2022-10-20T12:43:36.856Z,101628.97
2022-10-20T12:46:03.199Z,101631.75
2022-10-20T12:48:29.494Z,101629.75
2022-10-20T12:50:55.790Z,101629.31
2022-10-20T12:53:24.934Z,101623.03
2022-10-20T12:55:51.254Z,101623.03
2022-10-20T12:58:17.581Z,101624.19
2022-10-20T13:00:43.952Z,101626.19
2022-10-20T13:03:13.455Z,101625.84
2022-10-20T13:05:44.856Z,101617.88
2022-10-20T13:08:11.187Z,101614.34
2022-10-20T13:10:37.510Z,101611.03
2022-10-20T13:13:06.629Z,101609.22
2022-10-20T13:15:35.742Z,101606.50
2022-10-20T13:18:02.076Z,101618.38
2022-10-20T13:20:28.413Z,101613.56
2022-10-20T13:22:54.778Z,101605.22
2022-10-20T13:25:21.134Z,101610.41
2022-10-20T13:27:47.442Z,101618.78
2022-10-20T13:30:13.911Z,101617.69
2022-10-20T13:32:53.915Z,101613.69
2022-10-20T13:35:29.664Z,101612.56
2022-10-20T13:37:58.780Z,101620.63
2022-10-20T13:40:27.866Z,101617.47
2022-10-20T13:42:56.980Z,101615.44
2022-10-20T13:45:26.092Z,101616.72
2022-10-20T13:47:52.422Z,101608.34
2022-10-20T13:52:52.739Z,101604.25
2022-10-20T13:55:19.275Z,101601.50
2022-10-20T13:57:50.784Z,101601.09
2022-10-20T14:00:19.253Z,101590.09
2022-10-20T14:02:48.374Z,101596.94
2022-10-20T14:05:14.686Z,101595.78
2022-10-20T14:07:40.981Z,101599.94
2022-10-20T14:10:10.083Z,101602.50
2022-10-20T14:12:39.453Z,101593.31
2022-10-20T14:15:05.960Z,101598.75
2022-10-20T14:17:32.255Z,101579.91
2022-10-20T14:20:01.382Z,101587.22
2022-10-20T14:22:27.659Z,101582.06
2022-10-20T14:24:53.963Z,101583.34
2022-10-20T14:27:20.265Z,101580.88
2022-10-20T14:29:49.369Z,101585.47
2022-10-20T14:32:18.484Z,101570.03
2022-10-20T14:34:44.780Z,101573.63
2022-10-20T14:37:11.093Z,101564.41
2022-10-20T14:39:40.509Z,101574.00
2022-10-20T14:42:06.832Z,101567.97
2022-10-20T14:44:35.930Z,101568.00
2022-10-20T14:47:02.266Z,101561.22
2022-10-20T14:49:28.579Z,101561.22
2022-10-20T14:51:54.880Z,101573.53
2022-10-20T14:54:24.074Z,101564.03
2022-10-20T14:56:53.243Z,101563.84
2022-10-20T14:59:19.535Z,101557.19
2022-10-20T15:01:45.841Z,101549.25
2022-10-20T15:04:13.034Z,101552.66
2022-10-20T15:06:39.353Z,101550.28
2022-10-20T15:09:05.755Z,101548.53
2022-10-20T15:11:32.156Z,101539.88
2022-10-20T15:13:58.482Z,101543.41
2022-10-20T15:16:24.815Z,101539.03
2022-10-20T15:18:53.958Z,101548.16
2022-10-20T15:21:20.326Z,101540.78
2022-10-20T15:23:49.452Z,101530.97
2022-10-20T15:26:15.772Z,101538.72
2022-10-20T15:28:42.089Z,101531.28
2022-10-20T15:31:08.504Z,101532.91
2022-10-20T15:33:34.794Z,101526.53
2022-10-20T15:36:01.102Z,101523.81
2022-10-20T15:38:30.206Z,101527.88
2022-10-20T15:43:25.607Z,101528.78
2022-10-20T15:45:54.711Z,101539.66
2022-10-20T15:48:21.029Z,101542.44
2022-10-20T15:50:50.136Z,101537.84
2022-10-20T15:53:19.286Z,101537.16
2022-10-20T15:55:45.584Z,101535.19
2022-10-20T15:58:12.043Z,101532.63
2022-10-20T16:00:38.418Z,101528.25
2022-10-20T16:03:04.751Z,101528.66
2022-10-20T16:05:31.109Z,101536.13
2022-10-20T16:07:57.404Z,101536.25
2022-10-20T16:10:23.863Z,101533.41
2022-10-20T16:12:50.161Z,101536.50
2022-10-20T16:15:16.449Z,101530.28
2022-10-20T16:17:42.774Z,101535.41
2022-10-20T16:20:09.225Z,101539.00
2022-10-20T16:22:35.855Z,101538.56
2022-10-20T16:25:02.419Z,101533.25
2022-10-20T16:27:28.751Z,101531.25
2022-10-20T16:29:55.100Z,101534.84
2022-10-20T16:32:21.429Z,101534.38
2022-10-20T16:34:47.770Z,101536.34
2022-10-20T16:37:14.360Z,101539.50
2022-10-20T16:39:40.906Z,101541.94
2022-10-20T16:42:07.253Z,101536.28
2022-10-20T16:44:33.848Z,101541.00
2022-10-20T16:47:00.179Z,101542.94
2022-10-20T16:49:26.514Z,101536.59
2022-10-20T16:51:52.860Z,101543.75
2022-10-20T16:54:19.210Z,101538.59
2022-10-20T16:56:45.704Z,101535.44
2022-10-20T16:59:12.896Z,101538.94
2022-10-20T17:01:39.228Z,101539.41
2022-10-20T17:04:05.608Z,101542.94
2022-10-20T17:06:31.920Z,101535.00
2022-10-20T17:08:58.300Z,101539.34
2022-10-20T17:11:24.646Z,101537.72
2022-10-20T17:13:50.984Z,101542.88
2022-10-20T17:16:17.312Z,101542.53
2022-10-20T17:18:43.663Z,101537.72
2022-10-20T17:21:09.975Z,101538.94
2022-10-20T17:23:38.851Z,101538.94
2022-10-20T17:26:08.114Z,101534.56
2022-10-20T17:28:34.453Z,101527.81
2022-10-20T17:31:00.945Z,101525.00
2022-10-20T17:33:27.275Z,101532.59
2022-10-20T17:35:53.649Z,101534.56
2022-10-20T17:38:20.012Z,101529.38
2022-10-20T17:40:46.366Z,101537.34
2022-10-20T17:43:12.703Z,101533.72
2022-10-20T17:45:39.053Z,101534.94
2022-10-20T17:48:05.421Z,101531.78
2022-10-20T17:50:31.750Z,101534.56
2022-10-20T17:52:58.082Z,101536.50
2022-10-20T17:55:24.429Z,101539.28
2022-10-20T17:57:50.772Z,101534.56
2022-10-20T18:00:26.791Z,101538.50
2022-10-20T18:03:03.479Z,101532.94
2022-10-20T18:05:29.810Z,101521.78
2022-10-20T18:07:56.480Z,101526.56
2022-10-20T18:10:22.918Z,101530.53
2022-10-20T18:12:49.262Z,101530.59
2022-10-20T18:15:15.593Z,101518.66
2022-10-20T18:17:41.929Z,101530.94
2022-10-20T18:20:08.273Z,101534.53
2022-10-20T18:22:34.813Z,101531.72
2022-10-20T18:25:01.352Z,101520.59
2022-10-20T18:27:27.695Z,101532.13
2022-10-20T18:29:54.044Z,101529.75
2022-10-20T18:32:20.417Z,101530.16
2022-10-20T18:34:46.767Z,101525.00
2022-10-20T18:37:13.069Z,101518.63
2022-10-20T18:39:39.437Z,101524.97
2022-10-20T18:42:05.823Z,101524.19
2022-10-20T18:44:32.160Z,101531.34
2022-10-20T18:46:58.463Z,101535.31
2022-10-20T18:49:24.785Z,101530.94
2022-10-20T18:51:51.094Z,101536.09
2022-10-20T18:54:17.421Z,101524.59
2022-10-20T18:56:43.729Z,101530.94
2022-10-20T18:59:10.074Z,101524.97
2022-10-20T19:01:36.419Z,101518.19
2022-10-20T19:04:02.760Z,101522.97
2022-10-20T19:06:29.300Z,101517.81
2022-10-20T19:08:55.698Z,101534.88
2022-10-20T19:11:21.993Z,101540.06
2022-10-20T19:13:48.352Z,101533.69
2022-10-20T19:16:14.698Z,101539.28
2022-10-20T19:18:41.333Z,101542.84
2022-10-20T19:21:07.993Z,101536.09
2022-10-20T19:23:34.350Z,101534.91
2022-10-20T19:26:00.692Z,101544.84
2022-10-20T19:28:27.074Z,101535.31
2022-10-20T19:30:53.401Z,101528.53
2022-10-20T19:33:19.715Z,101529.75
2022-10-20T19:35:46.049Z,101532.53
2022-10-20T19:38:13.255Z,101526.50
2022-10-20T19:40:39.579Z,101522.09
2022-10-20T19:43:05.915Z,101524.16
2022-10-20T19:45:32.251Z,101530.50
2022-10-20T19:47:58.568Z,101527.31
2022-10-20T19:50:24.861Z,101530.88
2022-10-20T19:52:54.122Z,101521.72
2022-10-20T19:55:22.838Z,101515.75
2022-10-20T19:57:49.167Z,101505.03
2022-10-20T20:00:15.492Z,101505.44
2022-10-20T20:02:41.920Z,101506.22
2022-10-20T20:05:09.149Z,101503.38
2022-10-20T20:07:35.678Z,101502.59
2022-10-20T20:10:02.617Z,101510.19
2022-10-20T20:12:28.941Z,101513.75
2022-10-20T20:14:55.286Z,101509.78
2022-10-20T20:17:21.597Z,101495.03
2022-10-20T20:19:47.986Z,101492.25
2022-10-20T20:22:14.328Z,101491.50
2022-10-20T20:24:40.619Z,101485.91
2022-10-20T20:27:06.936Z,101490.25
2022-10-20T20:29:33.266Z,101498.25
2022-10-20T20:31:59.596Z,101494.75
2022-10-20T20:34:25.903Z,101490.34
2022-10-20T20:36:52.257Z,101496.56
2022-10-20T20:39:18.591Z,101490.34
2022-10-20T20:41:44.964Z,101492.72
2022-10-20T20:44:11.337Z,101490.31
2022-10-20T20:46:37.699Z,101485.22
2022-10-20T20:49:04.068Z,101487.91
2022-10-20T20:51:30.378Z,101484.34
2022-10-20T20:53:56.705Z,101480.84
2022-10-20T20:56:25.959Z,101472.06
2022-10-20T20:58:55.102Z,101477.97
2022-10-20T21:01:21.999Z,101471.25
2022-10-20T21:03:48.413Z,101470.59
2022-10-20T21:06:15.670Z,101476.69
2022-10-20T21:08:42.026Z,101474.66
2022-10-20T21:11:08.431Z,101478.66
2022-10-20T21:13:34.794Z,101476.63
2022-10-20T21:16:04.008Z,101470.38
2022-10-20T21:18:33.153Z,101459.34
2022-10-20T21:20:59.603Z,101463.31
2022-10-20T21:23:26.039Z,101462.53
2022-10-20T21:25:54.451Z,101464.44
2022-10-20T21:28:20.863Z,101451.91
2022-10-20T21:30:47.245Z,101443.63
2022-10-20T21:33:15.505Z,101436.34
2022-10-20T21:35:41.923Z,101435.72
2022-10-20T21:38:10.268Z,101435.44
2022-10-20T21:40:36.668Z,101442.84
2022-10-20T21:43:03.060Z,101439.84
2022-10-20T21:45:29.486Z,101434.50
2022-10-20T21:47:56.824Z,101437.00
2022-10-20T21:50:24.150Z,101433.22
2022-10-20T21:52:50.580Z,101437.72
2022-10-20T21:55:17.858Z,101438.16
2022-10-20T22:00:21.920Z,101429.91
2022-10-20T22:02:51.189Z,101429.19
2022-10-20T22:05:18.552Z,101423.78
2022-10-20T22:07:45.008Z,101431.28
2022-10-20T22:10:12.504Z,101431.38
2022-10-20T22:12:38.961Z,101425.88
2022-10-20T22:15:06.377Z,101416.69
2022-10-20T22:17:32.820Z,101418.31
2022-10-20T22:20:00.186Z,101426.66
2022-10-20T22:22:27.570Z,101417.00
2022-10-20T22:24:54.934Z,101416.16
2022-10-20T22:27:41.558Z,101405.44
2022-10-20T22:30:07.867Z,101402.50
2022-10-20T22:32:35.647Z,101394.91
2022-10-20T22:35:03.208Z,101390.78
2022-10-20T22:37:29.666Z,101391.44
2022-10-20T22:39:57.028Z,101393.06
2022-10-20T22:42:25.022Z,101390.41
2022-10-20T22:44:51.577Z,101389.91
2022-10-20T22:47:18.943Z,101379.41
2022-10-20T22:49:45.391Z,101375.34
2022-10-20T22:52:11.823Z,101372.56
2022-10-20T22:54:39.343Z,101373.25
2022-10-20T22:57:05.797Z,101373.56
2022-10-20T22:59:32.235Z,101367.91
2022-10-20T23:01:59.632Z,101373.09
2022-10-20T23:04:26.067Z,101375.03
2022-10-20T23:06:53.530Z,101371.69
2022-10-20T23:09:21.001Z,101370.94
2022-10-20T23:11:48.400Z,101372.31
2022-10-20T23:14:15.805Z,101379.00
2022-10-20T23:16:42.244Z,101374.63
2022-10-20T23:19:08.774Z,101372.91
2022-10-20T23:21:35.208Z,101361.72
2022-10-20T23:24:02.579Z,101359.00
2022-10-20T23:26:29.017Z,101362.47
2022-10-20T23:28:56.363Z,101367.66
2022-10-20T23:31:22.796Z,101370.97
2022-10-20T23:33:50.163Z,101367.47
2022-10-20T23:36:16.617Z,101365.03
2022-10-20T23:38:43.070Z,101379.72
2022-10-20T23:41:10.422Z,101372.47
2022-10-20T23:43:37.823Z,101374.94
2022-10-20T23:46:04.274Z,101370.56
2022-10-20T23:48:30.707Z,101376.91
2022-10-20T23:50:58.076Z,101375.78
2022-10-20T23:53:25.461Z,101380.91
2022-10-20T23:55:52.784Z,101386.94
2022-10-20T23:58:20.162Z,101370.63
